Prof. Albrecht Penck — Y3CH — position and weather

sailwx.info

Track history (hours):
 
Tides and Currents Weather Stations Pressure Air Temp Water Temp Dewpoint Dewpoint Depression Visibility Wind Speed Wind Dir Waves Ship Positions

Oceanographic research ship Prof. Albrecht Penck (Germany)

Detailed information on ship capabilities available from University of Delaware's Ocean Information Center.

Last reported at 2019-Aug-09 04:50 UTC. Time now 2019-Aug-24 08:52 UTC.
Position N 34°49' E 011°58'.
Warning: this ship's position is 15 days out of date.

Length 38.6 m; beam 7.2 m; draft 3.2 m.

Type: Cargo ship. MMSI: 211215130.

Date/timePositionNaut miles runAvg speedWind from/ knotsBaromVisibWave heightAir tempDewpointWater temp
2019-Aug-09 04:50N 34°49' E 011°58'  
2019-Aug-06 15:33N 33°32' E 012°18'0 7.7
2019-Aug-06 15:29N 33°32' E 012°18'20 7.9
2019-Aug-06 12:58N 33°27' E 012°41'6 5.3
2019-Aug-06 11:46N 33°23' E 012°35'3 6.6
2019-Aug-06 11:16N 33°24' E 012°31'2 6.6
2019-Aug-06 10:53N 33°24' E 012°29'10 6.8
2019-Aug-06 09:24N 33°27' E 012°17'5 4.9
2019-Aug-06 08:26N 33°24' E 012°13'29 1.4
2019-Aug-05 12:00N 33°26' E 012°48'5 7.2
2019-Aug-05 11:21N 33°29' E 012°52'4 8.0
2019-Aug-05 10:53N 33°32' E 012°55'13 8.0
2019-Aug-05 09:15N 33°42' E 013°04'5 8.0
2019-Aug-05 08:40N 33°46' E 013°08'5 8.0
2019-Aug-05 08:04N 33°50' E 013°11'1 7.6
2019-Aug-05 07:59N 33°50' E 013°12'112 2.2
2019-Aug-03 06:12N 35°24' E 014°26'19 2.0
2019-Aug-02 20:34N 35°34' E 014°06'1 8.4
2019-Aug-02 20:28N 35°35' E 014°05'4 8.7
2019-Aug-02 19:59N 35°37' E 014°01'4 8.7
2019-Aug-02 19:30N 35°40' E 013°57'4 8.6
2019-Aug-02 19:00N 35°43' E 013°53'4 8.7
2019-Aug-02 18:30N 35°45' E 013°49'5 9.0
2019-Aug-02 18:00N 35°47' E 013°44'4 9.0
2019-Aug-02 17:30N 35°49' E 013°39'4 8.9
2019-Aug-02 17:00N 35°51' E 013°34'4 8.9
2019-Aug-02 16:30N 35°53' E 013°29'5 9.0
2019-Aug-02 16:00N 35°55' E 013°24'4 8.7
2019-Aug-02 15:30N 35°57' E 013°19'4 8.8
2019-Aug-02 15:00N 35°59' E 013°15'4 8.6
2019-Aug-02 14:30N 36°01' E 013°10'4 8.6
2019-Aug-02 14:00N 36°03' E 013°05'4 8.6
2019-Aug-02 13:30N 36°05' E 013°00'4 8.5
2019-Aug-02 13:00N 36°06' E 012°55'5 8.7
2019-Aug-02 12:26N 36°06' E 012°49'4 8.5
2019-Aug-02 12:00N 36°05' E 012°45'4 8.0
2019-Aug-02 11:30N 36°03' E 012°41'9 8.3
2019-Aug-02 10:23N 35°57' E 012°32'3 8.4
2019-Aug-02 10:00N 35°55' E 012°29'2 4.8
2019-Aug-02 09:30N 35°54' E 012°26'0 0.8
2019-Aug-02 09:00N 35°53' E 012°26'0 0.7
2019-Aug-02 08:21N 35°53' E 012°25'0 0.6
2019-Aug-02 08:00N 35°53' E 012°25'0 0.7
2019-Aug-02 07:30N 35°53' E 012°25'1 0.6
2019-Aug-02 06:34N 35°52' E 012°24'0 0.6
2019-Aug-02 06:29N 35°52' E 012°24'1 1.3
2019-Aug-02 05:53N 35°52' E 012°24'45 4.2
2019-Aug-01 19:02N 35°11' E 012°48'0 0.3
2019-Aug-01 18:59N 35°11' E 012°48'0 0.2
2019-Aug-01 18:29N 35°12' E 012°48'0 0.2
2019-Aug-01 18:00N 35°12' E 012°48'0 0.2
2019-Aug-01 17:30N 35°12' E 012°48'0 0.3
2019-Aug-01 17:00N 35°12' E 012°48'0 0.3
2019-Aug-01 16:29N 35°12' E 012°48'0 0.2
2019-Aug-01 15:56N 35°12' E 012°48'0 0.3
2019-Aug-01 14:58N 35°12' E 012°48'1 0.4
2019-Aug-01 12:26N 35°13' E 012°48'0 0.6
2019-Aug-01 11:58N 35°14' E 012°48'0 0.5
2019-Aug-01 11:18N 35°14' E 012°48'101 2.3
2019-Jul-30 15:57N 33°34' E 012°26'3 7.0
2019-Jul-30 15:30N 33°35' E 012°22'4 7.1
2019-Jul-30 15:00N 33°37' E 012°19'  
Track history (hours):
 
Tides and Currents Weather Stations Pressure Air Temp Water Temp Dewpoint Dewpoint Depression Visibility Wind Speed Wind Dir Waves Ship Positions

Oceanographic research ship Prof. Albrecht Penck (Germany)

Detailed information on ship capabilities available from University of Delaware's Ocean Information Center.

Last reported at 2019-Aug-09 04:50 UTC. Time now 2019-Aug-24 08:52 UTC.
Position N 34°49' E 011°58'.
Warning: this ship's position is 15 days out of date.

Length 38.6 m; beam 7.2 m; draft 3.2 m.

Type: Cargo ship. MMSI: 211215130.

Date/timePositionNaut miles runAvg speedWind from/ knotsBaromVisibWave heightAir tempDewpointWater temp
2019-Aug-09 04:50N 34°49' E 011°58'  
2019-Aug-06 15:33N 33°32' E 012°18'0 7.7
2019-Aug-06 15:29N 33°32' E 012°18'20 7.9
2019-Aug-06 12:58N 33°27' E 012°41'6 5.3
2019-Aug-06 11:46N 33°23' E 012°35'3 6.6
2019-Aug-06 11:16N 33°24' E 012°31'2 6.6
2019-Aug-06 10:53N 33°24' E 012°29'10 6.8
2019-Aug-06 09:24N 33°27' E 012°17'5 4.9
2019-Aug-06 08:26N 33°24' E 012°13'29 1.4
2019-Aug-05 12:00N 33°26' E 012°48'5 7.2
2019-Aug-05 11:21N 33°29' E 012°52'4 8.0
2019-Aug-05 10:53N 33°32' E 012°55'13 8.0
2019-Aug-05 09:15N 33°42' E 013°04'5 8.0
2019-Aug-05 08:40N 33°46' E 013°08'5 8.0
2019-Aug-05 08:04N 33°50' E 013°11'1 7.6
2019-Aug-05 07:59N 33°50' E 013°12'112 2.2
2019-Aug-03 06:12N 35°24' E 014°26'19 2.0
2019-Aug-02 20:34N 35°34' E 014°06'1 8.4
2019-Aug-02 20:28N 35°35' E 014°05'4 8.7
2019-Aug-02 19:59N 35°37' E 014°01'4 8.7
2019-Aug-02 19:30N 35°40' E 013°57'4 8.6
2019-Aug-02 19:00N 35°43' E 013°53'4 8.7
2019-Aug-02 18:30N 35°45' E 013°49'5 9.0
2019-Aug-02 18:00N 35°47' E 013°44'4 9.0
2019-Aug-02 17:30N 35°49' E 013°39'4 8.9
2019-Aug-02 17:00N 35°51' E 013°34'4 8.9
2019-Aug-02 16:30N 35°53' E 013°29'5 9.0
2019-Aug-02 16:00N 35°55' E 013°24'4 8.7
2019-Aug-02 15:30N 35°57' E 013°19'4 8.8
2019-Aug-02 15:00N 35°59' E 013°15'4 8.6
2019-Aug-02 14:30N 36°01' E 013°10'4 8.6
2019-Aug-02 14:00N 36°03' E 013°05'4 8.6
2019-Aug-02 13:30N 36°05' E 013°00'4 8.5
2019-Aug-02 13:00N 36°06' E 012°55'5 8.7
2019-Aug-02 12:26N 36°06' E 012°49'4 8.5
2019-Aug-02 12:00N 36°05' E 012°45'4 8.0
2019-Aug-02 11:30N 36°03' E 012°41'9 8.3
2019-Aug-02 10:23N 35°57' E 012°32'3 8.4
2019-Aug-02 10:00N 35°55' E 012°29'2 4.8
2019-Aug-02 09:30N 35°54' E 012°26'0 0.8
2019-Aug-02 09:00N 35°53' E 012°26'0 0.7
2019-Aug-02 08:21N 35°53' E 012°25'0 0.6
2019-Aug-02 08:00N 35°53' E 012°25'0 0.7
2019-Aug-02 07:30N 35°53' E 012°25'1 0.6
2019-Aug-02 06:34N 35°52' E 012°24'0 0.6
2019-Aug-02 06:29N 35°52' E 012°24'1 1.3
2019-Aug-02 05:53N 35°52' E 012°24'45 4.2
2019-Aug-01 19:02N 35°11' E 012°48'0 0.3
2019-Aug-01 18:59N 35°11' E 012°48'0 0.2
2019-Aug-01 18:29N 35°12' E 012°48'0 0.2
2019-Aug-01 18:00N 35°12' E 012°48'0 0.2
2019-Aug-01 17:30N 35°12' E 012°48'0 0.3
2019-Aug-01 17:00N 35°12' E 012°48'0 0.3
2019-Aug-01 16:29N 35°12' E 012°48'0 0.2
2019-Aug-01 15:56N 35°12' E 012°48'0 0.3
2019-Aug-01 14:58N 35°12' E 012°48'1 0.4
2019-Aug-01 12:26N 35°13' E 012°48'0 0.6
2019-Aug-01 11:58N 35°14' E 012°48'0 0.5
2019-Aug-01 11:18N 35°14' E 012°48'101 2.3
2019-Jul-30 15:57N 33°34' E 012°26'3 7.0
2019-Jul-30 15:30N 33°35' E 012°22'4 7.1
2019-Jul-30 15:00N 33°37' E 012°19'  

Dump ship's entire track history